Roberts, MT (59070)

1:32 PM MST on February 25, 2017 (GMT -0700)
Red Lodge | | Change Station

Elev 5102 ft 45.27 °N, 109.26 °W | Updated 19 seconds ago

Partly Cloudy
Partly Cloudy
26.2 °F
Feels Like 26 °F
N
2.0
Wind Variable Wind from NNE

Today
High -- | Low -- °F
--% Chance of Precip.
Yesterday
High -- | Low -- °F
Precip. -- in
Pressure 29.88 in
Visibility 10.0 miles
Clouds Scattered Clouds 7000 ft
Scattered Clouds 20000 ft
Windchill 26 °F
Dew Point 15 °F
Humidity 63%
Rainfall 0.02 in
Snow Depth Not available.
7:01 AM 5:58 PM
Waning Crescent, 1% visible
METAR KBIL 251953Z 28023KT 10SM SCT070 SCT200 M01/M10 A2978 RMK AO2 PK WND 28033/1943 SLP117 T10111100 $
Pressure 29.88 in
Visibility 10.0 miles
Clouds Scattered Clouds 7000 ft
Scattered Clouds 20000 ft
Windchill 26 °F
Dew Point 15 °F
Humidity 63%
Rainfall 0.02 in
Snow Depth Not available.
7:01 AM 5:58 PM
Waning Crescent, 1% visible
METAR KBIL 251953Z 28023KT 10SM SCT070 SCT200 M01/M10 A2978 RMK AO2 PK WND 28033/1943 SLP117 T10111100 $

Get Your Daily Forecast Email!

Thanks for signing up!

Be on the lookout for a verification email in your inbox.

You'll start receiving the daily forecast at 8 AM.

×

10-Day Weather Forecast

Almanac

Astronomy

Feb. 25, 2017 Rise Set
Actual Time
Civil Twilight
Nautical Twilight
Astronomical Twilight
Moon
Length of Visible Light
Length of Day
Tomorrow will be .
, % of the Moon is Illuminated

Today's Extremes

State Highs State Lows

Community

WunderPhotos

Upload Photos

1,962,540 photos uploaded!

WunderBlog® & News

Nearby

Air Quality

  Air Quality AQ Index Pollutant
Not available.

Snow Depth

Station Depth Elevation

Earthquake Activity

City Distance Mag. Time & Date
Minimum magnitude displayed is 2.5.

Coastal Water Temperatures

Place Temperature

Stations

Nearby Weather Stations

Station Location Temp. Windchill Dew Point Humidity Wind Precip. Elev Updated Type
                   

Watches & Warnings

There are currently no watches in effect.